createdAt,value
2022-12-22T00:02:02.949Z,5.50
2022-12-22T00:04:48.534Z,5.50
2022-12-22T00:07:34.481Z,5.50
2022-12-22T00:10:20.332Z,5.60
2022-12-22T00:13:06.310Z,5.60
2022-12-22T00:15:53.967Z,5.60
2022-12-22T00:18:39.874Z,5.70
2022-12-22T00:21:27.282Z,5.60
2022-12-22T00:24:13.308Z,5.60
2022-12-22T00:26:59.195Z,5.50
2022-12-22T00:29:49.985Z,5.50
2022-12-22T00:32:35.983Z,5.50
2022-12-22T00:35:21.878Z,5.50
2022-12-22T00:38:07.792Z,5.50
2022-12-22T00:40:53.695Z,5.50
2022-12-22T00:43:39.553Z,5.40
2022-12-22T00:46:29.890Z,5.40
2022-12-22T00:49:16.327Z,5.40
2022-12-22T00:52:02.332Z,5.40
2022-12-22T00:54:48.256Z,5.40
2022-12-22T00:57:38.275Z,5.40
2022-12-22T01:00:25.658Z,5.40
2022-12-22T01:03:11.697Z,5.40
2022-12-22T01:05:57.444Z,5.40
2022-12-22T01:08:43.466Z,5.40
2022-12-22T01:11:29.346Z,5.40
2022-12-22T01:14:15.329Z,5.40
2022-12-22T01:17:01.343Z,5.50
2022-12-22T01:19:47.289Z,5.60
2022-12-22T01:22:37.131Z,5.60
2022-12-22T01:25:30.234Z,5.50
2022-12-22T01:28:16.178Z,5.50
2022-12-22T01:31:02.302Z,5.50
2022-12-22T01:33:48.154Z,5.50
2022-12-22T01:36:34.907Z,5.50
2022-12-22T01:39:22.197Z,5.50
2022-12-22T01:42:08.673Z,5.40
2022-12-22T01:44:54.678Z,5.40
2022-12-22T01:47:53.318Z,5.40
2022-12-22T01:50:49.464Z,5.40
2022-12-22T01:53:41.685Z,5.40
2022-12-22T01:56:28.441Z,5.40
2022-12-22T01:59:17.947Z,5.40
2022-12-22T02:02:03.914Z,5.30
2022-12-22T02:04:54.637Z,5.30
2022-12-22T02:07:45.957Z,5.30
2022-12-22T02:10:49.548Z,5.20
2022-12-22T02:13:45.490Z,5.30
2022-12-22T02:16:42.122Z,5.30
2022-12-22T02:20:10.601Z,5.20
2022-12-22T02:23:30.015Z,5.30
2022-12-22T02:26:39.232Z,5.30
2022-12-22T02:29:26.232Z,5.30
2022-12-22T02:32:13.639Z,5.40
2022-12-22T02:34:59.616Z,5.30
2022-12-22T02:38:13.018Z,5.30
2022-12-22T02:41:26.336Z,5.30
2022-12-22T02:44:15.397Z,5.30
2022-12-22T02:47:29.598Z,5.40
2022-12-22T02:50:23.592Z,5.30
2022-12-22T02:53:10.769Z,5.40
2022-12-22T02:55:56.821Z,5.40
2022-12-22T02:58:44.420Z,5.40
2022-12-22T03:01:30.555Z,5.40
2022-12-22T03:04:16.181Z,5.50
2022-12-22T03:07:02.210Z,5.50
2022-12-22T03:09:48.235Z,5.50
2022-12-22T03:12:34.229Z,5.40
2022-12-22T03:15:20.187Z,5.60
2022-12-22T03:18:06.189Z,5.60
2022-12-22T03:20:52.035Z,5.50
2022-12-22T03:23:37.950Z,5.50
2022-12-22T03:26:05.226Z,5.60
2022-12-22T03:28:32.405Z,5.60
2022-12-22T03:31:02.902Z,5.70
2022-12-22T03:33:30.137Z,5.60
2022-12-22T03:35:58.110Z,5.60
2022-12-22T03:38:25.625Z,5.70
2022-12-22T03:40:53.049Z,5.70
2022-12-22T03:43:38.799Z,5.70
2022-12-22T03:46:29.078Z,5.80
2022-12-22T03:49:10.705Z,5.90
2022-12-22T03:51:43.922Z,5.90
2022-12-22T03:54:13.781Z,5.90
2022-12-22T03:56:41.426Z,6.00
2022-12-22T03:59:08.948Z,6.00
2022-12-22T04:01:42.766Z,6.00
2022-12-22T04:04:11.275Z,6.00
2022-12-22T04:06:38.933Z,6.00
2022-12-22T04:09:06.393Z,6.10
2022-12-22T04:11:52.162Z,6.10
2022-12-22T04:14:20.555Z,6.10
2022-12-22T04:16:47.946Z,6.10
2022-12-22T04:19:16.061Z,6.20
2022-12-22T04:21:43.989Z,6.30
2022-12-22T04:24:13.217Z,6.30
2022-12-22T04:26:40.583Z,6.30
2022-12-22T04:29:07.865Z,6.30
2022-12-22T04:31:35.713Z,6.30
2022-12-22T04:34:02.939Z,6.40
2022-12-22T04:36:30.129Z,6.30
2022-12-22T04:38:57.275Z,6.30
2022-12-22T04:41:24.436Z,6.30
2022-12-22T04:43:51.616Z,6.30
2022-12-22T04:46:18.783Z,6.30
2022-12-22T04:48:46.056Z,6.30
2022-12-22T04:51:13.216Z,6.40
2022-12-22T04:53:40.402Z,6.30
2022-12-22T04:56:08.961Z,6.30
2022-12-22T04:58:36.357Z,6.40
2022-12-22T05:01:15.541Z,6.30
2022-12-22T05:03:42.945Z,6.30
2022-12-22T05:06:10.921Z,6.40
2022-12-22T05:08:38.200Z,6.40
2022-12-22T05:11:05.813Z,6.40
2022-12-22T05:13:33.323Z,6.40
2022-12-22T05:16:12.475Z,6.40
2022-12-22T05:18:40.776Z,6.50
2022-12-22T05:21:19.417Z,6.50
2022-12-22T05:23:46.942Z,6.50
2022-12-22T05:26:15.150Z,6.50
2022-12-22T05:28:43.441Z,6.60
2022-12-22T05:31:17.131Z,6.50
2022-12-22T05:33:44.664Z,6.60
2022-12-22T05:36:11.967Z,6.60
2022-12-22T05:38:40.018Z,6.60
2022-12-22T05:41:08.105Z,6.50
2022-12-22T05:43:35.619Z,6.50
2022-12-22T05:46:12.234Z,6.40
2022-12-22T05:48:40.471Z,6.40
2022-12-22T05:51:09.439Z,6.30
2022-12-22T05:53:37.965Z,6.30
2022-12-22T05:56:06.181Z,6.20
2022-12-22T05:58:34.233Z,6.20
2022-12-22T06:01:01.822Z,6.20
2022-12-22T06:03:30.202Z,6.20
2022-12-22T06:05:58.363Z,6.20
2022-12-22T06:08:25.940Z,6.20
2022-12-22T06:10:58.101Z,6.20
2022-12-22T06:13:26.057Z,6.30
2022-12-22T06:15:53.648Z,6.20
2022-12-22T06:18:20.898Z,6.20
2022-12-22T06:20:48.200Z,6.20
2022-12-22T06:23:16.027Z,6.20
2022-12-22T06:25:43.290Z,6.20
2022-12-22T06:28:10.487Z,6.30
2022-12-22T06:30:37.677Z,6.30
2022-12-22T06:33:05.207Z,6.30
2022-12-22T06:35:32.417Z,6.30
2022-12-22T06:37:59.548Z,6.30
2022-12-22T06:40:26.687Z,6.30
2022-12-22T06:43:10.121Z,6.30
2022-12-22T06:45:40.082Z,6.30
2022-12-22T06:48:08.612Z,6.30
2022-12-22T06:50:36.163Z,6.20
2022-12-22T06:53:04.276Z,6.20
2022-12-22T06:55:31.925Z,6.20
2022-12-22T06:57:59.167Z,6.20
2022-12-22T07:00:26.603Z,6.20
2022-12-22T07:02:54.137Z,6.10
2022-12-22T07:05:21.819Z,6.30
2022-12-22T07:07:49.044Z,6.20
2022-12-22T07:10:16.494Z,6.30
2022-12-22T07:12:43.638Z,6.40
2022-12-22T07:15:11.026Z,6.50
2022-12-22T07:17:38.393Z,6.70
2022-12-22T07:20:05.954Z,6.80
2022-12-22T07:22:33.104Z,7.10
2022-12-22T07:25:00.342Z,7.30
2022-12-22T07:27:27.552Z,7.40
2022-12-22T07:29:54.717Z,7.50
2022-12-22T07:32:21.876Z,7.70
2022-12-22T07:34:49.085Z,7.70
2022-12-22T07:37:16.291Z,7.70
2022-12-22T07:39:43.522Z,7.80
2022-12-22T07:42:32.106Z,7.80
2022-12-22T07:44:59.299Z,7.80
2022-12-22T07:47:33.241Z,7.80
2022-12-22T07:50:21.524Z,7.80
2022-12-22T07:52:48.696Z,7.80
2022-12-22T07:55:16.257Z,7.70
2022-12-22T07:57:43.410Z,7.70
2022-12-22T08:00:11.740Z,7.60
2022-12-22T08:02:41.888Z,7.60
2022-12-22T08:05:10.935Z,7.60
2022-12-22T08:07:38.161Z,7.70
2022-12-22T08:10:05.821Z,7.50
2022-12-22T08:12:33.175Z,7.50
2022-12-22T08:15:00.546Z,7.50
2022-12-22T08:17:28.743Z,7.60
2022-12-22T08:19:56.384Z,7.70
2022-12-22T08:22:24.371Z,7.70
2022-12-22T08:24:52.825Z,7.80
2022-12-22T08:27:39.693Z,7.90
2022-12-22T08:30:08.490Z,8.00
2022-12-22T08:32:38.192Z,8.20
2022-12-22T08:35:09.891Z,8.30
2022-12-22T08:37:41.406Z,8.40
2022-12-22T08:40:17.992Z,8.40
2022-12-22T08:42:46.391Z,8.50
2022-12-22T08:45:13.812Z,8.60
2022-12-22T08:47:41.192Z,8.70
2022-12-22T08:50:09.244Z,8.80
2022-12-22T08:52:36.650Z,8.90
2022-12-22T08:55:04.543Z,9.00
2022-12-22T08:57:31.710Z,9.00
2022-12-22T08:59:59.363Z,9.10
2022-12-22T09:02:26.708Z,9.20
2022-12-22T09:04:54.027Z,9.30
2022-12-22T09:07:21.240Z,9.40
2022-12-22T09:09:48.492Z,9.50
2022-12-22T09:12:15.712Z,9.50
2022-12-22T09:14:42.972Z,9.50
2022-12-22T09:17:10.137Z,9.60
2022-12-22T09:19:37.342Z,9.60
2022-12-22T09:22:04.536Z,9.60
2022-12-22T09:24:31.717Z,9.60
2022-12-22T09:26:58.927Z,9.70
2022-12-22T09:29:26.173Z,9.70
2022-12-22T09:31:53.344Z,9.70
2022-12-22T09:34:20.669Z,9.80
2022-12-22T09:36:48.049Z,9.80
2022-12-22T09:39:16.033Z,9.90
2022-12-22T09:41:51.158Z,10.00
2022-12-22T09:44:36.165Z,10.00
2022-12-22T09:47:12.748Z,10.00
2022-12-22T09:49:39.950Z,10.10
2022-12-22T09:52:21.042Z,10.10
2022-12-22T09:54:48.241Z,10.10
2022-12-22T09:57:15.413Z,10.20
2022-12-22T09:59:42.559Z,10.30
2022-12-22T10:02:19.947Z,10.10
2022-12-22T10:05:13.058Z,10.30
2022-12-22T10:07:42.301Z,10.40
2022-12-22T10:10:28.243Z,10.60
2022-12-22T10:13:00.693Z,10.60
2022-12-22T10:15:35.641Z,10.60
2022-12-22T10:18:17.287Z,10.70
2022-12-22T10:21:11.470Z,10.70
2022-12-22T10:23:43.875Z,10.70
2022-12-22T10:26:27.919Z,10.70
2022-12-22T10:28:59.129Z,10.80
2022-12-22T10:31:29.453Z,10.90
2022-12-22T10:34:10.365Z,10.90
2022-12-22T10:36:38.621Z,10.90
2022-12-22T10:39:09.084Z,10.90
2022-12-22T10:41:45.469Z,11.00
2022-12-22T10:44:15.739Z,10.90
2022-12-22T10:46:48.087Z,10.90
2022-12-22T10:49:20.182Z,10.90
2022-12-22T10:51:51.260Z,10.90
2022-12-22T10:54:33.368Z,10.90
2022-12-22T10:57:01.869Z,10.90
2022-12-22T10:59:29.224Z,10.90
2022-12-22T11:02:19.264Z,11.00
2022-12-22T11:04:47.104Z,11.00
2022-12-22T11:07:14.527Z,11.10
2022-12-22T11:09:42.057Z,11.10
2022-12-22T11:12:29.034Z,11.20
2022-12-22T11:15:24.021Z,11.20
2022-12-22T11:18:30.055Z,11.20
2022-12-22T11:21:05.784Z,11.10
2022-12-22T11:23:46.289Z,11.00
2022-12-22T11:26:23.373Z,10.80
2022-12-22T11:29:16.131Z,10.60
2022-12-22T11:32:01.092Z,10.50
2022-12-22T11:34:34.182Z,10.40
2022-12-22T11:37:36.505Z,10.40
2022-12-22T11:40:18.626Z,10.40
2022-12-22T11:43:03.821Z,10.30
2022-12-22T11:45:43.110Z,10.20
2022-12-22T11:48:22.928Z,10.00
2022-12-22T11:51:01.518Z,10.00
2022-12-22T11:54:08.687Z,9.90
2022-12-22T11:56:45.187Z,9.90
2022-12-22T11:59:15.160Z,9.90
2022-12-22T12:02:29.566Z,9.90
2022-12-22T12:04:59.955Z,9.90
2022-12-22T12:07:44.810Z,10.00
2022-12-22T12:10:21.823Z,10.10
2022-12-22T12:13:34.735Z,10.10
2022-12-22T12:16:25.030Z,10.10
2022-12-22T12:19:21.577Z,10.20
2022-12-22T12:21:58.996Z,10.30
2022-12-22T12:24:55.673Z,10.40
2022-12-22T12:27:31.851Z,10.40
2022-12-22T12:33:13.130Z,10.40
2022-12-22T12:35:49.232Z,10.40
2022-12-22T12:41:40.529Z,10.50
2022-12-22T12:44:13.795Z,10.50
2022-12-22T12:46:53.826Z,10.60
2022-12-22T12:49:36.081Z,10.60
2022-12-22T12:52:10.401Z,10.60
2022-12-22T12:54:47.735Z,10.60
2022-12-22T12:57:25.850Z,10.50
2022-12-22T12:59:56.022Z,10.50
2022-12-22T13:02:32.460Z,10.60
2022-12-22T13:05:42.700Z,10.60
2022-12-22T13:08:17.456Z,10.70
2022-12-22T13:11:08.911Z,10.80
2022-12-22T13:13:36.080Z,10.80
2022-12-22T13:16:03.412Z,10.80
2022-12-22T13:18:33.761Z,10.90
2022-12-22T13:21:51.789Z,10.80
2022-12-22T13:26:55.080Z,10.90
2022-12-22T13:29:22.260Z,10.80
2022-12-22T13:32:23.712Z,10.70
2022-12-22T13:35:33.180Z,10.80
2022-12-22T13:38:02.510Z,10.80
2022-12-22T13:40:49.046Z,10.80
2022-12-22T13:43:18.202Z,10.80
2022-12-22T13:45:48.990Z,10.80
2022-12-22T13:48:20.674Z,10.70
2022-12-22T13:50:49.757Z,10.80
2022-12-22T13:56:35.184Z,10.70
2022-12-22T13:59:03.195Z,10.80
2022-12-22T14:01:30.902Z,10.80
2022-12-22T14:04:07.747Z,10.80
2022-12-22T14:06:37.715Z,10.90
2022-12-22T14:09:18.014Z,10.80
2022-12-22T14:12:02.440Z,10.80
2022-12-22T14:14:41.579Z,10.90
2022-12-22T14:17:29.849Z,10.80
2022-12-22T14:19:59.325Z,10.90
2022-12-22T14:22:35.845Z,10.90
2022-12-22T14:25:26.211Z,10.90
2022-12-22T14:27:57.619Z,10.90
2022-12-22T14:30:33.426Z,11.00
2022-12-22T14:33:35.120Z,11.10
2022-12-22T14:36:23.200Z,10.90
2022-12-22T14:39:02.514Z,10.90
2022-12-22T14:41:51.060Z,10.90
2022-12-22T14:44:23.577Z,10.90
2022-12-22T14:47:11.949Z,11.00
2022-12-22T14:49:50.119Z,10.90
2022-12-22T14:52:39.215Z,10.80
2022-12-22T14:55:32.425Z,10.80
2022-12-22T14:58:10.350Z,10.80
2022-12-22T15:00:43.498Z,10.70
2022-12-22T15:03:36.927Z,10.70
2022-12-22T15:06:26.131Z,10.70
2022-12-22T15:09:06.463Z,10.70
2022-12-22T15:11:36.115Z,10.60
2022-12-22T15:14:05.199Z,10.70
2022-12-22T15:16:32.502Z,10.70
2022-12-22T15:19:00.101Z,10.60
2022-12-22T15:21:27.531Z,10.60
2022-12-22T15:23:54.814Z,10.60
2022-12-22T15:26:21.965Z,10.60
2022-12-22T15:28:49.905Z,10.60
2022-12-22T15:31:17.854Z,10.60
2022-12-22T15:33:45.707Z,10.60
2022-12-22T15:36:14.360Z,10.60
2022-12-22T15:38:41.866Z,10.60
2022-12-22T15:41:09.168Z,10.60
2022-12-22T15:43:57.141Z,10.60
2022-12-22T15:46:24.547Z,10.70
2022-12-22T15:48:53.567Z,10.60
2022-12-22T15:51:25.708Z,10.60
2022-12-22T15:53:54.582Z,10.60
2022-12-22T15:56:24.589Z,10.60
2022-12-22T15:58:52.327Z,10.60
2022-12-22T16:01:19.616Z,10.60
2022-12-22T16:03:46.943Z,10.50
2022-12-22T16:06:19.383Z,10.60
2022-12-22T16:08:53.188Z,10.60
2022-12-22T16:11:20.536Z,10.60
2022-12-22T16:13:49.551Z,10.50
2022-12-22T16:16:17.367Z,10.50
2022-12-22T16:18:44.542Z,10.50
2022-12-22T16:21:18.854Z,10.50
2022-12-22T16:23:47.812Z,10.50
2022-12-22T16:26:18.019Z,10.40
2022-12-22T16:28:45.526Z,10.40
2022-12-22T16:31:18.844Z,10.40
2022-12-22T16:33:46.222Z,10.40
2022-12-22T16:36:14.600Z,10.40
2022-12-22T16:38:45.618Z,10.40
2022-12-22T16:41:25.608Z,10.50
2022-12-22T16:46:43.289Z,10.30
2022-12-22T16:49:21.572Z,10.30
2022-12-22T16:51:54.843Z,10.30
2022-12-22T16:54:22.112Z,10.30
2022-12-22T16:56:51.753Z,10.40
2022-12-22T16:59:19.174Z,10.30
2022-12-22T17:01:56.827Z,10.20
2022-12-22T17:04:33.578Z,10.30
2022-12-22T17:07:05.247Z,10.40
2022-12-22T17:09:45.407Z,10.30
2022-12-22T17:12:19.632Z,10.30
2022-12-22T17:14:50.481Z,10.30
2022-12-22T17:17:28.660Z,10.30
2022-12-22T17:19:59.176Z,10.20
2022-12-22T17:22:29.088Z,10.20
2022-12-22T17:25:01.934Z,10.30
2022-12-22T17:27:31.567Z,10.30
2022-12-22T17:30:03.324Z,10.20
2022-12-22T17:32:30.632Z,10.40
2022-12-22T17:34:57.804Z,10.40
2022-12-22T17:37:24.976Z,10.30
2022-12-22T17:40:00.011Z,10.20
2022-12-22T17:42:31.281Z,10.20
2022-12-22T17:44:58.550Z,10.30
2022-12-22T17:47:33.348Z,10.20
2022-12-22T17:50:03.426Z,10.30
2022-12-22T17:52:30.813Z,10.20
2022-12-22T17:54:58.016Z,10.20
2022-12-22T17:57:32.500Z,10.20
2022-12-22T18:00:00.484Z,10.20
2022-12-22T18:02:29.553Z,10.20
2022-12-22T18:04:56.910Z,10.10
2022-12-22T18:07:25.030Z,10.20
2022-12-22T18:09:58.882Z,10.20
2022-12-22T18:12:26.525Z,10.20
2022-12-22T18:14:53.762Z,10.10
2022-12-22T18:17:35.140Z,10.20
2022-12-22T18:20:03.523Z,10.20
2022-12-22T18:22:30.773Z,10.20
2022-12-22T18:24:58.052Z,10.20
2022-12-22T18:27:25.213Z,10.10
2022-12-22T18:29:52.517Z,10.20
2022-12-22T18:32:26.645Z,10.10
2022-12-22T18:34:54.968Z,10.10
2022-12-22T18:37:22.253Z,10.10
2022-12-22T18:39:49.474Z,10.10
2022-12-22T18:42:22.410Z,10.10
2022-12-22T18:44:50.896Z,10.10
2022-12-22T18:47:18.738Z,10.10
2022-12-22T18:49:46.262Z,10.00
2022-12-22T18:52:23.141Z,10.00
2022-12-22T18:54:50.534Z,9.90
2022-12-22T18:57:19.726Z,9.90
2022-12-22T18:59:48.130Z,9.90
2022-12-22T19:02:24.996Z,9.90
2022-12-22T19:04:53.072Z,9.90
2022-12-22T19:07:23.310Z,9.80
2022-12-22T19:09:51.238Z,9.70
2022-12-22T19:12:22.905Z,9.70
2022-12-22T19:14:54.784Z,9.70
2022-12-22T19:17:25.192Z,9.70
2022-12-22T19:19:52.369Z,9.60
2022-12-22T19:22:20.579Z,9.60
2022-12-22T19:24:48.062Z,9.60
2022-12-22T19:27:25.071Z,9.50
2022-12-22T19:30:01.041Z,9.50
2022-12-22T19:32:35.773Z,9.50
2022-12-22T19:35:03.197Z,9.50
2022-12-22T19:37:30.450Z,9.50
2022-12-22T19:39:57.623Z,9.50
2022-12-22T19:42:25.989Z,9.60
2022-12-22T19:44:53.187Z,9.40
2022-12-22T19:47:29.405Z,9.50
2022-12-22T19:49:56.763Z,9.50
2022-12-22T19:52:23.901Z,9.50
2022-12-22T19:54:51.614Z,9.60
2022-12-22T19:57:21.991Z,9.50
2022-12-22T19:59:51.573Z,9.50
2022-12-22T20:02:22.041Z,9.50
2022-12-22T20:04:50.451Z,9.60
2022-12-22T20:07:19.840Z,9.60
2022-12-22T20:09:47.427Z,9.60
2022-12-22T20:12:35.960Z,9.60
2022-12-22T20:15:21.470Z,9.60
2022-12-22T20:17:50.769Z,9.60
2022-12-22T20:20:43.006Z,9.80
2022-12-22T20:23:19.773Z,9.80
2022-12-22T20:25:54.209Z,9.80
2022-12-22T20:28:25.413Z,9.80
2022-12-22T20:30:53.387Z,9.80
2022-12-22T20:33:22.568Z,9.90
2022-12-22T20:35:51.587Z,9.90
2022-12-22T20:38:23.782Z,9.90
2022-12-22T20:40:51.393Z,9.90
2022-12-22T20:43:21.192Z,9.90
2022-12-22T20:45:51.767Z,10.00
2022-12-22T20:48:22.049Z,10.00
2022-12-22T20:50:49.667Z,10.00
2022-12-22T20:53:19.258Z,10.10
2022-12-22T20:55:47.791Z,10.00
2022-12-22T20:58:29.153Z,10.00
2022-12-22T21:00:58.649Z,10.00
2022-12-22T21:03:26.983Z,10.10
2022-12-22T21:05:54.656Z,10.10
2022-12-22T21:08:24.960Z,10.00
2022-12-22T21:10:53.733Z,10.10
2022-12-22T21:13:21.698Z,10.10
2022-12-22T21:15:52.971Z,10.10
2022-12-22T21:18:23.132Z,10.10
2022-12-22T21:20:51.491Z,10.10
2022-12-22T21:23:18.722Z,10.10
2022-12-22T21:25:51.401Z,10.10
2022-12-22T21:28:42.723Z,10.00
2022-12-22T21:31:10.038Z,10.20
2022-12-22T21:33:39.445Z,10.10
2022-12-22T21:36:23.897Z,10.10
2022-12-22T21:38:55.013Z,10.10
2022-12-22T21:41:42.716Z,9.90
2022-12-22T21:44:12.467Z,10.10
2022-12-22T21:46:43.125Z,10.10
2022-12-22T21:49:31.817Z,10.10
2022-12-22T21:51:59.512Z,10.10
2022-12-22T21:54:27.545Z,10.10
2022-12-22T21:56:55.199Z,10.10
2022-12-22T21:59:22.916Z,10.00
2022-12-22T22:01:53.823Z,10.00
2022-12-22T22:04:21.911Z,10.00
2022-12-22T22:06:49.092Z,9.90
2022-12-22T22:09:16.262Z,10.00
2022-12-22T22:12:02.115Z,9.90
2022-12-22T22:14:29.319Z,9.90
2022-12-22T22:16:56.546Z,9.80
2022-12-22T22:19:23.712Z,9.90
2022-12-22T22:21:50.957Z,9.80
2022-12-22T22:24:18.234Z,9.80
2022-12-22T22:26:46.318Z,10.00
2022-12-22T22:29:13.512Z,9.80
2022-12-22T22:31:41.447Z,9.80
2022-12-22T22:34:09.280Z,9.80
2022-12-22T22:36:36.451Z,9.70
2022-12-22T22:39:03.720Z,9.80
2022-12-22T22:41:37.673Z,9.80
2022-12-22T22:44:08.353Z,9.80
2022-12-22T22:46:35.584Z,9.80
2022-12-22T22:49:02.834Z,9.80
2022-12-22T22:51:31.119Z,9.80
2022-12-22T22:53:58.512Z,9.80
2022-12-22T22:56:26.048Z,9.80
2022-12-22T22:58:53.208Z,9.80
2022-12-22T23:01:20.391Z,9.80
2022-12-22T23:03:47.705Z,9.80
2022-12-22T23:06:15.014Z,9.90
2022-12-22T23:08:42.215Z,9.80
2022-12-22T23:11:15.748Z,9.80
2022-12-22T23:13:43.263Z,9.80
2022-12-22T23:16:10.591Z,9.80
2022-12-22T23:18:38.617Z,9.70
2022-12-22T23:21:07.698Z,9.70
2022-12-22T23:23:35.716Z,9.70
2022-12-22T23:26:03.257Z,9.60
2022-12-22T23:28:30.558Z,9.70
2022-12-22T23:30:57.923Z,9.60
2022-12-22T23:33:25.187Z,9.60
2022-12-22T23:35:52.471Z,9.60
2022-12-22T23:38:20.935Z,9.50
2022-12-22T23:40:53.397Z,9.50
2022-12-22T23:43:21.901Z,9.40
2022-12-22T23:45:49.142Z,9.40
2022-12-22T23:48:16.591Z,9.30
2022-12-22T23:50:47.393Z,9.30
2022-12-22T23:53:15.727Z,9.20
2022-12-22T23:55:47.215Z,9.20
2022-12-22T23:58:15.202Z,9.10
